Terminal Aerodrome Forecast
Issued by NWS

Home | Current Version | Previous Version | Text Only | Print | Product List | Glossary On
Versions: 1 2 3 4 5 6 7 8 9 10 11 12 13 14 15 16 17 18 19
000
FTUS45 KRIW 181744
TAFCPR
TAF
KCPR 181744Z 1818/1918 02010KT P6SM SCT040
     FM181900 04015G25KT P6SM VCTS SCT040 OVC060CB
     FM190100 01012KT 3SM -SHRA SCT022 BKN030
     FM191200 03008KT P6SM VCSH OVC030=

USA.gov is the U.S. government's official web portal to all federal, state and local government web resources and services.